Time;durP1;ratioP1;P1;durP2;ratioP2;P2;SDS_P1;SDS_P2;PMS_P1;PMS_P2;Temp;Humidity;BMP_temperature;BMP_pressure;BME280_temperature;BME280_humidity;BME280_pressure;Samples;Min_cycle;Max_cycle;Signal;HPM_P1;HPM_P2
2022/08/28 00:00:58;;;;;;;12.67;11.17;;;;;;;18.22;74.83;92726.19;5030621;28;20180;-71
2022/08/28 00:03:23;;;;;;;12.57;11.27;;;;;;;18.08;74.98;92701.09;5030992;28;20208;-70
2022/08/28 00:05:49;;;;;;;13.47;10.97;;;;;;;18.04;74.54;92705.47;5031810;28;20296;-71
2022/08/28 00:08:16;;;;;;;15.23;10.97;;;;;;;18.19;74.40;92731.31;5050651;28;20224;-70
2022/08/28 00:10:42;;;;;;;12.20;11.13;;;;;;;18.02;75.02;92702.38;5037650;28;20215;-71
2022/08/28 00:13:14;;;;;;;12.60;11.30;;;;;;;18.08;74.95;92711.66;5035617;28;20194;-70
2022/08/28 00:15:39;;;;;;;12.37;11.13;;;;;;;18.05;74.67;92721.00;5030700;28;20294;-70
2022/08/28 00:18:05;;;;;;;12.77;11.17;;;;;;;18.10;75.01;92715.50;5030562;28;20187;-71
2022/08/28 00:20:33;;;;;;;13.67;12.37;;;;;;;18.30;73.71;92720.06;5029791;28;20232;-70
2022/08/28 00:22:59;;;;;;;11.90;10.83;;;;;;;18.22;74.58;92725.41;5049730;28;20219;-70
2022/08/28 00:25:26;;;;;;;11.67;10.73;;;;;;;18.23;74.45;92717.16;5049842;28;20230;-70
2022/08/28 00:27:56;;;;;;;14.23;12.30;;;;;;;18.22;74.31;92714.81;5049590;28;20174;-70
2022/08/28 00:30:28;;;;;;;17.87;10.60;;;;;;;18.36;73.39;92725.91;5049737;28;20258;-70
2022/08/28 00:32:56;;;;;;;12.17;11.17;;;;;;;18.25;74.77;92724.75;5030418;28;20180;-71
2022/08/28 00:35:22;;;;;;;12.73;11.10;;;;;;;18.17;75.14;92730.88;5030054;28;20295;-70
2022/08/28 00:37:49;;;;;;;14.27;10.73;;;;;;;18.11;75.68;92735.56;5029830;28;20192;-72
2022/08/28 00:40:17;;;;;;;11.73;10.87;;;;;;;18.22;75.16;92722.75;5029788;28;20266;-70
2022/08/28 00:42:45;;;;;;;13.20;11.53;;;;;;;17.90;75.99;92684.56;5030150;28;20212;-70
2022/08/28 00:45:10;;;;;;;12.00;10.77;;;;;;;18.00;76.47;92725.69;5030075;28;20235;-71
2022/08/28 00:47:37;;;;;;;12.43;11.20;;;;;;;18.08;75.56;92719.59;5029554;28;20210;-72
2022/08/28 00:50:04;;;;;;;12.70;11.53;;;;;;;17.95;76.28;92725.88;5029608;28;20238;-70
2022/08/28 00:52:29;;;;;;;12.47;11.10;;;;;;;17.89;76.91;92732.44;5029615;28;20214;-70
2022/08/28 00:55:09;;;;;;;13.50;12.00;;;;;;;17.96;77.27;92728.19;5029743;28;20230;-70
2022/08/28 00:57:50;;;;;;;13.00;11.90;;;;;;;17.92;77.68;92716.72;5029679;28;20201;-71
2022/08/28 01:00:32;;;;;;;12.30;10.93;;;;;;;17.97;77.79;92723.69;5030763;28;20237;-70
2022/08/28 01:02:58;;;;;;;12.50;11.43;;;;;;;17.98;77.09;92730.53;5033884;28;20218;-70
2022/08/28 01:05:24;;;;;;;12.60;11.10;;;;;;;17.83;77.13;92702.03;5033160;28;20219;-71
2022/08/28 01:07:51;;;;;;;12.80;11.70;;;;;;;17.96;77.15;92727.44;5033177;28;20218;-70
2022/08/28 01:10:21;;;;;;;15.93;11.13;;;;;;;17.88;77.27;92722.97;5033352;28;20286;-70
2022/08/28 01:12:48;;;;;;;15.30;12.30;;;;;;;17.83;77.78;92723.16;5022464;28;20181;-70
2022/08/28 01:15:17;;;;;;;12.20;11.17;;;;;;;17.86;77.82;92725.94;5014184;28;20237;-71
2022/08/28 01:17:48;;;;;;;17.70;11.43;;;;;;;17.77;78.71;92721.78;5031638;28;20186;-71
2022/08/28 01:20:20;;;;;;;14.10;10.77;;;;;;;17.73;79.01;92726.19;5033541;28;20228;-71
2022/08/28 01:23:12;;;;;;;14.07;12.07;;;;;;;17.80;78.58;92724.56;5032978;28;20247;-71
2022/08/28 01:25:37;;;;;;;13.37;12.00;;;;;;;17.81;79.06;92726.13;5032806;28;20227;-71
2022/08/28 01:28:07;;;;;;;12.77;11.50;;;;;;;17.77;79.45;92724.44;5033414;28;20213;-71
2022/08/28 01:30:33;;;;;;;13.43;11.47;;;;;;;17.70;80.22;92721.53;5032960;28;20227;-70
2022/08/28 01:32:58;;;;;;;12.03;11.03;;;;;;;17.60;80.49;92717.38;5033386;28;20187;-71
2022/08/28 01:35:30;;;;;;;12.13;11.03;;;;;;;17.66;80.66;92731.16;5033044;28;20252;-70
2022/08/28 01:37:56;;;;;;;12.10;10.93;;;;;;;17.68;79.84;92731.63;5033161;28;20185;-70
2022/08/28 01:40:34;;;;;;;12.50;11.17;;;;;;;17.66;80.13;92728.53;5033208;28;20231;-70
2022/08/28 01:43:12;;;;;;;13.77;12.17;;;;;;;17.72;80.64;92730.69;5023620;28;20210;-71
2022/08/28 01:45:44;;;;;;;15.63;12.70;;;;;;;17.59;81.24;92724.53;5032596;28;20222;-70
2022/08/28 01:48:11;;;;;;;13.53;12.17;;;;;;;17.72;80.56;92730.69;5033122;28;20210;-70
2022/08/28 01:50:36;;;;;;;14.70;12.10;;;;;;;17.59;80.98;92715.81;5032646;28;20223;-70
2022/08/28 01:53:03;;;;;;;12.03;10.40;;;;;;;17.62;80.28;92714.44;5033511;28;20195;-70
2022/08/28 01:55:31;;;;;;;15.30;11.97;;;;;;;17.67;80.58;92724.78;5032508;28;20300;-70
2022/08/28 01:57:57;;;;;;;12.57;11.40;;;;;;;17.54;80.58;92726.59;5032924;28;20184;-71
2022/08/28 02:00:27;;;;;;;13.07;11.60;;;;;;;17.54;80.47;92727.34;5032835;28;20972;-70
2022/08/28 02:02:55;;;;;;;16.70;11.67;;;;;;;17.50;79.83;92715.88;5031570;28;20299;-71
2022/08/28 02:05:23;;;;;;;12.97;11.80;;;;;;;17.63;80.07;92727.31;5032516;28;20227;-69
2022/08/28 02:07:49;;;;;;;12.53;11.43;;;;;;;17.46;80.76;92701.75;5032194;28;20232;-71
2022/08/28 02:10:15;;;;;;;15.37;12.10;;;;;;;17.56;81.42;92722.53;5032586;28;20243;-70
2022/08/28 02:12:41;;;;;;;12.17;10.97;;;;;;;17.51;81.88;92722.69;5039119;28;20186;-70
2022/08/28 02:15:07;;;;;;;14.17;12.17;;;;;;;17.54;81.28;92731.88;5032855;28;20219;-71
2022/08/28 02:17:33;;;;;;;12.97;11.67;;;;;;;17.52;81.41;92729.53;5032565;28;20226;-70
2022/08/28 02:19:59;;;;;;;12.77;11.57;;;;;;;17.34;81.20;92717.47;5032107;28;20673;-70
2022/08/28 02:22:24;;;;;;;12.17;11.07;;;;;;;17.36;81.79;92709.22;5032521;28;20214;-69
2022/08/28 02:24:50;;;;;;;13.80;11.20;;;;;;;17.42;82.07;92726.44;5032373;28;20259;-70
2022/08/28 02:27:15;;;;;;;11.70;10.53;;;;;;;17.43;81.86;92723.47;5032299;28;20244;-70
2022/08/28 02:29:41;;;;;;;14.17;11.70;;;;;;;17.52;81.95;92728.75;5031665;28;20249;-72
2022/08/28 02:32:06;;;;;;;13.77;11.13;;;;;;;17.24;82.43;92709.91;5032498;28;20207;-72
2022/08/28 02:34:33;;;;;;;13.87;11.63;;;;;;;17.40;82.50;92732.03;5032117;28;20255;-70
2022/08/28 02:36:59;;;;;;;11.93;11.03;;;;;;;17.33;82.85;92731.75;5031962;28;20171;-70
2022/08/28 02:39:25;;;;;;;16.33;12.60;;;;;;;17.28;83.37;92729.28;5032098;28;20234;-70
2022/08/28 02:41:50;;;;;;;14.33;13.07;;;;;;;17.15;82.73;92709.13;5030873;28;20206;-70
2022/08/28 02:44:16;;;;;;;12.97;11.67;;;;;;;17.30;83.32;92721.03;5032672;28;20948;-71
2022/08/28 02:46:41;;;;;;;13.10;11.63;;;;;;;17.29;83.08;92736.09;5031321;28;20176;-70
2022/08/28 02:49:07;;;;;;;12.83;10.53;;;;;;;17.34;82.86;92733.28;5031644;28;20210;-70
2022/08/28 02:51:33;;;;;;;12.20;11.20;;;;;;;17.10;83.60;92719.09;5031956;28;20199;-69
2022/08/28 02:53:59;;;;;;;13.40;11.13;;;;;;;16.92;84.33;92697.25;5031841;28;20228;-71
2022/08/28 02:56:24;;;;;;;12.43;11.23;;;;;;;17.02;84.49;92728.59;5038528;28;20192;-72
2022/08/28 02:58:50;;;;;;;12.70;11.37;;;;;;;17.03;84.54;92732.78;5043904;28;20207;-71
2022/08/28 03:01:15;;;;;;;12.90;11.13;;;;;;;17.00;84.06;92729.97;5031601;28;20187;-72
2022/08/28 03:03:42;;;;;;;14.27;10.40;;;;;;;16.84;84.17;92713.88;5031590;28;20266;-70
2022/08/28 03:06:11;;;;;;;12.60;11.40;;;;;;;16.57;83.75;92666.81;5031287;28;20247;-70
2022/08/28 03:08:37;;;;;;;12.20;11.20;;;;;;;16.96;83.79;92732.50;5031021;28;20228;-71
2022/08/28 03:11:03;;;;;;;14.20;10.77;;;;;;;16.95;84.11;92730.91;5031336;28;20188;-71
2022/08/28 03:13:29;;;;;;;13.57;11.30;;;;;;;16.86;84.50;92735.44;5031374;28;20185;-71
2022/08/28 03:15:55;;;;;;;20.33;12.27;;;;;;;16.87;84.71;92736.22;5031678;28;20736;-70
2022/08/28 03:18:21;;;;;;;12.07;10.80;;;;;;;16.70;84.81;92697.47;5031703;28;20187;-70
2022/08/28 03:20:47;;;;;;;16.90;12.13;;;;;;;16.64;86.09;92729.59;5031020;28;20230;-71
2022/08/28 03:23:25;;;;;;;12.50;11.47;;;;;;;16.69;86.82;92730.19;5030803;28;20217;-70
2022/08/28 03:25:51;;;;;;;14.13;12.13;;;;;;;16.69;86.70;92735.47;5032908;28;20237;-71
2022/08/28 03:28:17;;;;;;;13.93;11.93;;;;;;;16.72;86.88;92732.22;5050037;28;20186;-71
2022/08/28 03:30:43;;;;;;;14.50;12.30;;;;;;;16.94;85.50;92728.59;5048900;28;20225;-70
2022/08/28 03:33:08;;;;;;;12.00;10.27;;;;;;;16.89;85.60;92732.19;5031382;28;20193;-70
2022/08/28 03:35:36;;;;;;;12.40;11.30;;;;;;;16.83;85.18;92738.72;5030549;28;20238;-70
2022/08/28 03:38:01;;;;;;;13.53;11.33;;;;;;;16.84;85.52;92740.25;5025814;28;20193;-71
2022/08/28 03:40:27;;;;;;;12.93;11.70;;;;;;;16.44;85.66;92682.75;5030660;28;20231;-70
2022/08/28 03:42:53;;;;;;;12.30;11.10;;;;;;;16.77;86.26;92749.72;5030707;28;20211;-71
2022/08/28 03:45:18;;;;;;;12.03;11.13;;;;;;;16.83;85.88;92754.53;5031260;28;20258;-70
2022/08/28 03:47:43;;;;;;;12.77;11.40;;;;;;;16.72;85.58;92748.03;5030514;28;20197;-70
2022/08/28 03:50:10;;;;;;;15.43;10.73;;;;;;;16.77;85.33;92757.63;5030586;28;20227;-71
2022/08/28 03:52:37;;;;;;;13.03;10.97;;;;;;;16.73;85.53;92751.44;5047140;28;20221;-71
2022/08/28 03:55:07;;;;;;;14.20;11.87;;;;;;;16.89;85.68;92758.56;5043265;28;20233;-69
2022/08/28 03:57:33;;;;;;;15.00;11.97;;;;;;;16.69;84.79;92730.19;5046307;28;20194;-70
2022/08/28 03:59:58;;;;;;;12.33;10.87;;;;;;;16.97;84.10;92765.69;5050244;28;20226;-71
2022/08/28 04:02:24;;;;;;;14.83;11.90;;;;;;;16.80;84.62;92749.88;5050009;28;20218;-70
2022/08/28 04:04:49;;;;;;;13.13;11.67;;;;;;;16.87;84.90;92750.16;5048262;28;20689;-70
2022/08/28 04:07:17;;;;;;;11.60;10.30;;;;;;;16.99;85.01;92773.28;5030616;28;20717;-70
2022/08/28 04:09:42;;;;;;;12.80;11.63;;;;;;;16.89;86.34;92761.19;5030054;28;20231;-70
2022/08/28 04:12:08;;;;;;;11.33;10.33;;;;;;;17.02;85.53;92772.66;5030178;28;20175;-70
2022/08/28 04:14:34;;;;;;;17.63;11.97;;;;;;;17.04;85.12;92773.13;5030622;28;20223;-70
2022/08/28 04:17:00;;;;;;;12.53;11.20;;;;;;;17.13;84.68;92777.28;5030228;28;20195;-70
2022/08/28 04:19:25;;;;;;;12.70;11.60;;;;;;;17.18;84.55;92784.28;5030311;28;20250;-71
2022/08/28 04:21:51;;;;;;;15.60;11.63;;;;;;;17.20;84.32;92774.94;5040378;28;20199;-71
2022/08/28 04:24:16;;;;;;;19.67;11.57;;;;;;;17.25;84.03;92766.06;5049733;28;20225;-71
2022/08/28 04:26:42;;;;;;;11.33;10.50;;;;;;;17.44;83.91;92791.06;5040545;28;20197;-70
2022/08/28 04:29:07;;;;;;;12.27;11.00;;;;;;;17.43;83.26;92768.34;5030099;28;20222;-70
2022/08/28 04:31:34;;;;;;;13.50;12.33;;;;;;;17.47;83.56;92771.94;5037919;28;20186;-70
2022/08/28 04:34:06;;;;;;;12.73;11.70;;;;;;;17.58;83.92;92786.34;5049730;28;20231;-70
2022/08/28 04:36:34;;;;;;;12.40;11.40;;;;;;;17.57;83.97;92784.78;5041842;28;20193;-70
2022/08/28 04:39:01;;;;;;;15.30;10.80;;;;;;;17.81;83.44;92805.34;5029986;28;20291;-70
2022/08/28 04:41:27;;;;;;;14.90;10.50;;;;;;;17.86;83.58;92812.31;5029951;28;20182;-72
2022/08/28 04:43:55;;;;;;;14.13;10.90;;;;;;;17.91;82.66;92799.72;5061955;28;20224;-70
2022/08/28 04:46:20;;;;;;;11.73;10.67;;;;;;;18.00;82.56;92786.47;5029959;28;20776;-71
2022/08/28 04:48:46;;;;;;;14.20;11.20;;;;;;;17.87;82.22;92756.53;5030017;28;20240;-71
2022/08/28 04:51:13;;;;;;;12.13;11.10;;;;;;;18.24;82.58;92807.78;5029715;28;20192;-70
2022/08/28 04:53:39;;;;;;;13.20;11.90;;;;;;;18.36;82.08;92813.94;5029659;28;20186;-70
2022/08/28 04:56:08;;;;;;;12.20;10.93;;;;;;;18.52;81.45;92809.63;5033961;28;20198;-71
2022/08/28 04:58:33;;;;;;;13.30;11.77;;;;;;;18.63;81.13;92813.44;5049472;28;20211;-70
2022/08/28 05:01:05;;;;;;;15.13;10.90;;;;;;;18.79;80.37;92816.28;5044871;28;20231;-70
2022/08/28 05:03:31;;;;;;;12.57;11.50;;;;;;;18.96;79.44;92816.16;5029807;28;20277;-71
2022/08/28 05:05:57;;;;;;;11.97;10.80;;;;;;;19.04;79.06;92815.31;5029350;28;20195;-71
2022/08/28 05:08:26;;;;;;;11.53;10.33;;;;;;;19.15;78.83;92809.28;5030009;28;20217;-70
2022/08/28 05:10:52;;;;;;;12.43;11.30;;;;;;;19.47;76.35;92822.88;5028087;28;20208;-70
2022/08/28 05:13:18;;;;;;;12.20;10.93;;;;;;;19.49;76.24;92816.16;5014973;28;20185;-71
2022/08/28 05:15:46;;;;;;;13.57;10.50;;;;;;;19.53;75.88;92811.75;5012579;28;20240;-71
2022/08/28 05:18:13;;;;;;;12.87;11.70;;;;;;;19.74;75.45;92817.75;5049908;28;20184;-70
2022/08/28 05:20:42;;;;;;;13.50;12.33;;;;;;;19.74;74.43;92801.84;5048317;28;20920;-71
2022/08/28 05:23:08;;;;;;;13.97;12.53;;;;;;;19.91;74.58;92820.19;5030092;28;20215;-71
2022/08/28 05:25:39;;;;;;;17.33;14.50;;;;;;;20.01;74.52;92821.63;5029143;28;20224;-70
2022/08/28 05:28:05;;;;;;;15.77;14.07;;;;;;;19.96;74.20;92822.63;5030381;28;20192;-70
2022/08/28 05:30:32;;;;;;;16.33;14.63;;;;;;;20.19;73.64;92829.06;5029538;28;20239;-71
2022/08/28 05:32:58;;;;;;;17.53;14.07;;;;;;;20.05;73.89;92828.59;5029572;28;20229;-71
2022/08/28 05:35:25;;;;;;;20.13;13.07;;;;;;;20.25;73.16;92842.91;5029462;28;20238;-70
2022/08/28 05:37:51;;;;;;;13.60;12.33;;;;;;;20.05;72.45;92847.16;5029245;28;20193;-70
2022/08/28 05:40:17;;;;;;;14.67;12.23;;;;;;;20.31;69.68;92846.88;5029192;28;20286;-70
2022/08/28 05:42:43;;;;;;;17.43;11.87;;;;;;;20.16;70.37;92832.38;5029061;28;20209;-71
2022/08/28 05:45:09;;;;;;;13.83;12.47;;;;;;;20.20;70.81;92841.22;5029658;28;20233;-71
2022/08/28 05:47:34;;;;;;;13.65;12.48;;;;;;;20.47;71.55;92848.50;5033723;28;20205;-71
2022/08/28 05:49:59;;;;;;;13.47;12.37;;;;;;;20.31;70.60;92831.72;5031984;28;20248;-71
2022/08/28 05:52:25;;;;;;;13.27;11.93;;;;;;;20.66;69.38;92854.03;5032935;28;20200;-70
2022/08/28 05:54:50;;;;;;;12.13;11.07;;;;;;;20.51;68.78;92798.97;5032576;28;20285;-71
2022/08/28 05:57:16;;;;;;;12.38;11.18;;;;;;;21.05;68.44;92857.84;5033158;28;20183;-70
2022/08/28 05:59:41;;;;;;;13.20;11.98;;;;;;;23.30;60.78;92861.53;5032468;28;20306;-72
2022/08/28 06:02:07;;;;;;;13.07;11.80;;;;;;;26.54;50.78;92862.41;5031797;28;20908;-73
2022/08/28 06:04:34;;;;;;;13.85;12.35;;;;;;;27.32;47.97;92869.09;5032330;28;20711;-71
2022/08/28 06:06:59;;;;;;;13.07;11.88;;;;;;;25.84;51.51;92866.31;5043945;28;20211;-70
2022/08/28 06:09:27;;;;;;;12.55;10.63;;;;;;;25.17;52.41;92857.47;5052533;28;20244;-70
2022/08/28 06:11:54;;;;;;;14.77;11.50;;;;;;;23.72;57.18;92865.03;5051867;28;20181;-71
2022/08/28 06:14:20;;;;;;;12.88;11.43;;;;;;;22.85;60.39;92860.56;5052782;28;20220;-70
2022/08/28 06:16:48;;;;;;;13.75;12.55;;;;;;;21.91;64.66;92857.94;5042490;28;20198;-71
2022/08/28 06:19:15;;;;;;;14.38;12.95;;;;;;;22.20;63.42;92814.16;5032345;28;20226;-71
2022/08/28 06:21:41;;;;;;;14.45;12.23;;;;;;;22.38;63.52;92847.28;5032144;28;20258;-71
2022/08/28 06:24:08;;;;;;;13.57;12.32;;;;;;;22.03;67.11;92847.22;5032376;28;20239;-71
2022/08/28 06:26:34;;;;;;;13.75;12.35;;;;;;;22.10;65.80;92851.94;5032496;28;20204;-71
2022/08/28 06:29:00;;;;;;;13.98;12.52;;;;;;;22.56;64.46;92853.81;5032141;28;20224;-70
2022/08/28 06:31:27;;;;;;;13.95;12.60;;;;;;;22.64;64.34;92855.53;5039565;28;20207;-70
2022/08/28 06:33:54;;;;;;;13.70;12.60;;;;;;;22.53;65.65;92859.84;5051699;28;20255;-70
2022/08/28 06:36:20;;;;;;;14.10;12.48;;;;;;;22.17;64.89;92862.75;5045251;28;20182;-70
2022/08/28 06:38:46;;;;;;;17.63;12.68;;;;;;;22.62;63.39;92865.75;5031977;28;20229;-71
2022/08/28 06:41:12;;;;;;;15.68;12.27;;;;;;;22.29;65.83;92852.00;5036995;28;20275;-70
2022/08/28 06:43:38;;;;;;;13.77;12.35;;;;;;;22.66;63.14;92869.28;5036481;28;20264;-71
2022/08/28 06:46:04;;;;;;;14.98;12.20;;;;;;;22.74;63.39;92870.19;5032237;28;20202;-71
2022/08/28 06:48:30;;;;;;;13.85;12.45;;;;;;;22.09;64.78;92850.38;5031786;28;20237;-71
2022/08/28 06:50:56;;;;;;;18.85;12.40;;;;;;;22.66;64.45;92876.47;5032376;28;20185;-70
2022/08/28 06:53:26;;;;;;;14.20;12.55;;;;;;;22.59;64.25;92866.44;5032524;28;20188;-70
2022/08/28 06:56:21;;;;;;;15.60;12.43;;;;;;;22.75;63.61;92872.50;5031372;28;20218;-70
2022/08/28 06:58:48;;;;;;;13.55;12.35;;;;;;;22.75;64.59;92877.06;5028306;28;20246;-70
2022/08/28 07:01:16;;;;;;;12.80;11.45;;;;;;;22.56;64.12;92872.44;5037207;28;20182;-71
2022/08/28 07:03:44;;;;;;;14.13;12.35;;;;;;;22.66;64.64;92871.16;5051031;28;20200;-71
2022/08/28 07:06:11;;;;;;;13.50;12.15;;;;;;;22.56;62.46;92871.66;5046271;28;20197;-70
2022/08/28 07:08:37;;;;;;;13.20;11.52;;;;;;;22.95;62.11;92860.00;5031591;28;20224;-71
2022/08/28 07:11:17;;;;;;;11.95;10.73;;;;;;;22.73;64.62;92873.97;5031553;28;20190;-70
2022/08/28 07:13:44;;;;;;;13.18;11.95;;;;;;;22.38;64.04;92847.28;5012672;28;20198;-70
2022/08/28 07:16:10;;;;;;;12.30;11.20;;;;;;;22.94;61.99;92861.13;5017428;28;20180;-71
2022/08/28 07:18:37;;;;;;;17.88;13.07;;;;;;;22.78;62.24;92866.50;5031183;28;20205;-71
2022/08/28 07:21:02;;;;;;;13.52;12.15;;;;;;;23.18;60.50;92869.63;5035205;28;20180;-71
2022/08/28 07:23:29;;;;;;;17.55;11.23;;;;;;;23.55;59.51;92878.78;5051092;28;20213;-71
2022/08/28 07:25:54;;;;;;;15.10;10.85;;;;;;;23.52;60.15;92862.72;5048062;28;20185;-70
2022/08/28 07:28:20;;;;;;;14.85;10.57;;;;;;;23.58;58.26;92880.75;5031644;28;20185;-72
2022/08/28 07:30:58;;;;;;;12.38;11.18;;;;;;;23.84;58.18;92873.97;5032327;28;20225;-71
2022/08/28 07:33:24;;;;;;;11.95;10.15;;;;;;;23.92;57.67;92868.44;5051239;28;20188;-71
2022/08/28 07:35:50;;;;;;;12.43;11.18;;;;;;;23.66;59.98;92878.97;5047830;28;20275;-70
2022/08/28 07:38:16;;;;;;;13.98;10.73;;;;;;;24.08;58.71;92884.38;5031222;28;20208;-71
2022/08/28 07:40:41;;;;;;;12.63;11.18;;;;;;;24.16;57.15;92872.66;5030369;28;20249;-71
2022/08/28 07:46:02;;;;;;;12.57;11.25;;;;;;;24.17;56.07;92879.56;5032893;28;20219;-72
2022/08/28 07:48:28;;;;;;;13.77;10.82;;;;;;;23.95;57.86;92875.72;5030623;28;20238;-71
2022/08/28 07:50:53;;;;;;;11.98;10.32;;;;;;;24.34;57.00;92871.09;5030175;28;20194;-71
2022/08/28 07:53:19;;;;;;;10.35;9.38;;;;;;;24.55;56.33;92866.06;5031015;28;20252;-70
2022/08/28 07:55:45;;;;;;;15.80;11.82;;;;;;;24.36;56.88;92877.59;5029920;28;20536;-71
2022/08/28 07:58:12;;;;;;;12.82;10.20;;;;;;;24.26;59.26;92864.09;5031051;28;20657;-71
2022/08/28 08:00:37;;;;;;;12.75;11.48;;;;;;;24.66;54.19;92872.38;5029826;28;20222;-71
2022/08/28 08:03:03;;;;;;;12.00;10.98;;;;;;;24.31;56.07;92869.13;5030609;28;20228;-70
2022/08/28 08:05:29;;;;;;;11.27;9.95;;;;;;;24.42;54.81;92856.72;5030352;28;20230;-71
2022/08/28 08:07:54;;;;;;;15.10;10.07;;;;;;;24.76;53.02;92866.44;5030245;28;20224;-71
2022/08/28 08:10:20;;;;;;;11.45;9.70;;;;;;;24.35;54.33;92856.59;5029928;28;20316;-70
2022/08/28 08:12:45;;;;;;;13.48;9.85;;;;;;;24.31;54.72;92856.53;5019159;28;20217;-71
2022/08/28 08:15:12;;;;;;;13.18;9.70;;;;;;;24.86;51.87;92876.50;5010928;28;20333;-72
2022/08/28 08:17:38;;;;;;;12.13;10.60;;;;;;;24.96;52.28;92873.22;5027552;28;20188;-70
2022/08/28 08:20:05;;;;;;;14.73;9.88;;;;;;;25.04;51.18;92864.91;5030171;28;20217;-70
2022/08/28 08:22:30;;;;;;;29.23;9.65;;;;;;;24.69;52.27;92859.09;5030220;28;20220;-72
2022/08/28 08:24:56;;;;;;;14.98;9.68;;;;;;;24.66;51.08;92861.69;5030209;28;20225;-71
2022/08/28 08:27:21;;;;;;;13.52;10.32;;;;;;;24.33;55.60;92869.56;5044733;28;20189;-71
2022/08/28 08:29:47;;;;;;;13.07;10.98;;;;;;;24.12;53.87;92869.19;5049750;28;20245;-71
2022/08/28 08:32:14;;;;;;;13.35;10.23;;;;;;;24.43;53.75;92874.28;5049544;28;20192;-71
2022/08/28 08:34:48;;;;;;;12.27;10.52;;;;;;;24.88;52.33;92882.25;5049601;28;20230;-71
2022/08/28 08:37:14;;;;;;;12.70;10.35;;;;;;;25.13;52.64;92875.34;5040759;28;20629;-71
2022/08/28 08:39:41;;;;;;;12.20;9.82;;;;;;;24.89;53.64;92855.19;5030005;28;20233;-71
2022/08/28 08:42:27;;;;;;;12.90;10.05;;;;;;;25.01;51.90;92876.34;5029848;28;20244;-71
2022/08/28 08:44:56;;;;;;;11.13;10.00;;;;;;;25.07;50.87;92874.13;5029135;28;20233;-71
2022/08/28 08:47:47;;;;;;;13.55;10.63;;;;;;;24.73;51.74;92867.16;5031704;28;20202;-71
2022/08/28 08:50:33;;;;;;;14.38;9.65;;;;;;;25.24;52.70;92873.59;5028965;28;20241;-71
2022/08/28 08:53:05;;;;;;;11.60;10.07;;;;;;;25.46;50.43;92872.00;5049876;28;20195;-71
2022/08/28 08:55:35;;;;;;;14.23;10.93;;;;;;;25.38;50.83;92876.47;5049268;28;20233;-71
2022/08/28 08:58:24;;;;;;;14.07;10.07;;;;;;;25.35;50.38;92860.41;5010453;28;20266;-71
2022/08/28 09:01:19;;;;;;;12.05;11.02;;;;;;;25.43;52.30;92878.84;5012090;28;20287;-71
2022/08/28 09:04:09;;;;;;;13.50;10.50;;;;;;;25.24;50.24;92874.38;5005197;28;20244;-71
2022/08/28 09:06:43;;;;;;;11.20;10.15;;;;;;;25.36;51.11;92878.75;5027139;28;20193;-71
2022/08/28 09:09:31;;;;;;;13.57;10.88;;;;;;;26.02;49.43;92873.44;5049732;28;20244;-71
2022/08/28 09:12:02;;;;;;;12.55;10.05;;;;;;;26.00;48.63;92867.66;5033536;28;20183;-71
2022/08/28 09:14:53;;;;;;;11.90;10.70;;;;;;;25.92;49.36;92871.38;5010126;28;20827;-70
2022/08/28 09:17:22;;;;;;;10.75;9.90;;;;;;;26.10;48.78;92864.31;5022264;28;20266;-71
2022/08/28 09:19:48;;;;;;;10.85;9.73;;;;;;;26.21;48.69;92875.88;5029410;28;20253;-71
2022/08/28 09:22:14;;;;;;;18.10;9.07;;;;;;;25.70;49.84;92861.56;5031940;28;20940;-71
2022/08/28 09:24:40;;;;;;;12.10;9.90;;;;;;;25.98;47.51;92856.53;5033410;28;20215;-71
2022/08/28 09:27:23;;;;;;;10.98;9.93;;;;;;;25.93;47.17;92862.19;5046158;28;20193;-73
2022/08/28 09:30:05;;;;;;;11.80;10.60;;;;;;;26.11;47.99;92855.16;5053157;28;20229;-72
2022/08/28 09:32:33;;;;;;;16.23;10.82;;;;;;;25.93;49.71;92864.88;5045915;28;20324;-71
2022/08/28 09:35:28;;;;;;;10.73;9.48;;;;;;;26.36;48.74;92872.22;5033074;28;20230;-72
2022/08/28 09:37:56;;;;;;;11.40;10.15;;;;;;;26.45;47.82;92871.91;5038472;28;20216;-71
2022/08/28 09:40:23;;;;;;;10.23;9.43;;;;;;;26.71;47.53;92869.84;5032994;28;20230;-71
2022/08/28 09:45:54;;;;;;;13.55;9.57;;;;;;;26.43;45.52;92850.84;5034412;28;20233;-71
2022/08/28 09:48:31;;;;;;;11.20;10.05;;;;;;;26.94;44.71;92866.19;5013638;28;20179;-71
2022/08/28 09:51:02;;;;;;;11.20;10.00;;;;;;;26.78;45.18;92861.09;5016003;28;20198;-71
2022/08/28 09:53:30;;;;;;;11.73;10.25;;;;;;;26.70;46.04;92857.59;5032758;28;20198;-71
2022/08/28 09:56:07;;;;;;;19.40;9.93;;;;;;;27.06;44.57;92861.28;5032615;28;20186;-72
2022/08/28 09:58:35;;;;;;;11.55;10.27;;;;;;;26.99;44.30;92858.53;5032513;28;20259;-69
2022/08/28 10:01:32;;;;;;;11.57;9.98;;;;;;;27.16;44.94;92862.50;5036394;28;20186;-71
2022/08/28 10:04:26;;;;;;;12.35;10.23;;;;;;;27.31;42.76;92861.44;5043094;28;20244;-72
2022/08/28 10:06:58;;;;;;;13.38;10.38;;;;;;;27.28;43.82;92857.59;5050750;28;20217;-72
2022/08/28 10:09:48;;;;;;;13.95;10.15;;;;;;;26.90;43.89;92850.06;5052561;28;20225;-71
2022/08/28 10:12:32;;;;;;;11.55;10.50;;;;;;;26.98;44.95;92848.97;5031352;28;20192;-71
2022/08/28 10:15:16;;;;;;;15.52;10.25;;;;;;;27.04;44.10;92852.84;5012367;28;20227;-70
2022/08/28 10:17:44;;;;;;;11.93;10.80;;;;;;;27.06;45.59;92841.72;5047769;28;20270;-71
2022/08/28 10:20:14;;;;;;;11.18;10.18;;;;;;;27.53;43.10;92846.97;5052521;28;20222;-71
2022/08/28 10:22:42;;;;;;;17.35;10.93;;;;;;;27.38;44.53;92840.03;5051503;28;20198;-71
2022/08/28 10:25:08;;;;;;;10.55;9.75;;;;;;;27.48;43.28;92847.34;5051517;28;20253;-71
2022/08/28 10:27:48;;;;;;;13.70;9.95;;;;;;;27.57;41.92;92843.16;5050707;28;20182;-72
2022/08/28 10:30:19;;;;;;;11.80;10.60;;;;;;;27.61;40.36;92821.72;5032787;28;20222;-72
2022/08/28 10:33:01;;;;;;;11.65;9.98;;;;;;;27.68;40.38;92848.56;5030729;28;20261;-73
2022/08/28 10:35:51;;;;;;;17.67;10.23;;;;;;;27.11;41.62;92842.16;5032043;28;20249;-71
2022/08/28 10:38:22;;;;;;;10.40;9.38;;;;;;;27.32;43.32;92828.09;5032346;28;20190;-71
2022/08/28 10:41:00;;;;;;;11.88;10.77;;;;;;;27.78;42.05;92845.16;5031461;28;20231;-71
2022/08/28 10:43:47;;;;;;;15.52;10.75;;;;;;;27.83;40.52;92842.09;5030704;28;20213;-74
2022/08/28 10:46:41;;;;;;;14.65;10.13;;;;;;;27.99;40.60;92834.50;5034562;28;20242;-71
2022/08/28 10:49:26;;;;;;;10.25;9.35;;;;;;;27.96;39.55;92837.94;5026724;28;20222;-71
2022/08/28 10:51:58;;;;;;;11.98;10.40;;;;;;;28.18;39.26;92839.50;5031552;28;20242;-71
2022/08/28 10:54:53;;;;;;;11.98;9.80;;;;;;;28.30;40.45;92841.81;5031553;28;20230;-71
2022/08/28 10:57:30;;;;;;;15.10;10.15;;;;;;;27.80;40.98;92827.50;5037859;28;20205;-71
2022/08/28 10:59:58;;;;;;;10.07;9.27;;;;;;;27.66;38.07;92832.09;5050404;28;20241;-72
2022/08/28 11:02:25;;;;;;;10.48;9.35;;;;;;;27.97;37.55;92832.19;5036336;28;20210;-71
2022/08/28 11:04:54;;;;;;;11.63;9.30;;;;;;;28.22;37.72;92826.84;5031201;28;20227;-72
2022/08/28 11:07:34;;;;;;;13.52;9.38;;;;;;;28.22;36.80;92834.91;5031769;28;20223;-71
2022/08/28 11:10:21;;;;;;;10.95;9.75;;;;;;;28.04;37.53;92831.44;5031471;28;20222;-71
2022/08/28 11:12:50;;;;;;;14.10;10.20;;;;;;;28.12;38.45;92831.09;5038242;28;20194;-71
2022/08/28 11:15:27;;;;;;;12.00;9.68;;;;;;;28.17;38.52;92828.00;5032025;28;20256;-71
2022/08/28 11:18:16;;;;;;;11.63;10.52;;;;;;;28.35;37.03;92829.94;5031255;28;20178;-71
2022/08/28 11:20:54;;;;;;;14.13;10.70;;;;;;;28.44;37.44;92824.97;5012783;28;20237;-71
2022/08/28 11:23:28;;;;;;;10.85;9.85;;;;;;;28.25;37.64;92783.88;5051752;28;20921;-71
2022/08/28 11:26:00;;;;;;;15.00;10.10;;;;;;;28.41;36.66;92821.09;5036259;28;20203;-71
2022/08/28 11:28:35;;;;;;;13.10;9.57;;;;;;;28.21;38.25;92822.63;5030809;28;20183;-73
2022/08/28 11:31:03;;;;;;;14.85;10.50;;;;;;;28.61;39.03;92814.22;5034550;28;20226;-71
2022/08/28 11:33:44;;;;;;;14.60;9.85;;;;;;;28.40;37.39;92818.81;5050822;28;20266;-71
2022/08/28 11:36:09;;;;;;;18.38;9.80;;;;;;;28.31;38.51;92816.53;5045721;28;20187;-71